Time;durP1;ratioP1;P1;durP2;ratioP2;P2;SDS_P1;SDS_P2;PMS_P1;PMS_P2;Temp;Humidity;BMP_temperature;BMP_pressure;BME280_temperature;BME280_humidity;BME280_pressure;Samples;Min_cycle;Max_cycle;Signal;HPM_P1;HPM_P2
2024/01/21 00:01:54;;;;;;;32.53;17.35;;;;;;;1.43;71.44;101872.31;5052581;28;20489;-57
2024/01/21 00:04:24;;;;;;;27.23;16.88;;;;;;;1.42;71.56;101860.63;5043610;28;20470;-63
2024/01/21 00:06:55;;;;;;;28.20;16.45;;;;;;;1.57;70.72;101847.47;5045217;28;20710;-64
2024/01/21 00:09:23;;;;;;;30.50;17.45;;;;;;;1.43;71.06;101837.81;5047172;28;20709;-64
2024/01/21 00:11:51;;;;;;;33.70;17.40;;;;;;;1.38;70.80;101818.69;5060112;28;20060;-62
2024/01/21 00:14:22;;;;;;;31.00;16.48;;;;;;;1.17;71.01;101803.69;5045464;28;20518;-63
2024/01/21 00:16:49;;;;;;;32.75;18.00;;;;;;;1.12;71.78;101797.25;5044097;28;20068;-63
2024/01/21 00:19:19;;;;;;;29.38;16.05;;;;;;;1.37;71.30;101803.47;5044338;28;20052;-63
2024/01/21 00:22:05;;;;;;;26.83;16.25;;;;;;;1.19;71.02;101813.50;5045759;28;20045;-65
2024/01/21 00:24:41;;;;;;;28.95;16.00;;;;;;;1.27;71.44;101819.44;5045491;28;20053;-66
2024/01/21 00:27:39;;;;;;;30.88;17.13;;;;;;;1.11;71.56;101818.16;5046687;28;20049;-65
2024/01/21 00:30:11;;;;;;;28.08;15.65;;;;;;;0.92;72.57;101840.03;5052283;28;20758;-64
2024/01/21 00:32:39;;;;;;;28.45;16.60;;;;;;;0.89;73.08;101849.44;5058357;28;20049;-65
2024/01/21 00:35:25;;;;;;;29.17;16.17;;;;;;;1.09;72.49;101847.41;5049059;28;20453;-65
2024/01/21 00:38:14;;;;;;;27.20;15.90;;;;;;;1.39;72.15;101850.22;5033891;28;20615;-66
2024/01/21 00:41:12;;;;;;;26.17;15.68;;;;;;;1.36;71.70;101841.69;5029513;28;20527;-63
2024/01/21 00:43:40;;;;;;;27.00;15.80;;;;;;;1.00;71.97;101832.44;5055410;28;20060;-65
2024/01/21 00:46:09;;;;;;;30.40;15.88;;;;;;;1.01;73.16;101838.72;5048050;28;20045;-64
2024/01/21 00:48:41;;;;;;;27.95;16.05;;;;;;;1.20;72.52;101817.84;5028977;28;20588;-63
2024/01/21 00:51:16;;;;;;;27.48;15.43;;;;;;;1.30;71.91;101816.28;5045031;28;20049;-64
2024/01/21 00:53:44;;;;;;;26.67;15.07;;;;;;;1.20;71.50;101818.69;5061353;28;20065;-64
2024/01/21 00:56:13;;;;;;;25.92;15.18;;;;;;;1.17;71.89;101819.13;5029944;28;20072;-63
2024/01/21 00:58:47;;;;;;;24.25;14.43;;;;;;;0.95;72.62;101828.75;5012548;28;20700;-63
2024/01/21 01:01:18;;;;;;;26.38;15.27;;;;;;;1.03;72.52;101831.16;5027467;28;20383;-64
2024/01/21 01:03:46;;;;;;;27.90;16.13;;;;;;;1.00;72.75;101834.31;5028181;28;20064;-64
2024/01/21 01:06:15;;;;;;;26.52;15.70;;;;;;;1.11;72.60;101829.00;5042984;28;20042;-63
2024/01/21 01:08:43;;;;;;;26.45;15.00;;;;;;;1.01;72.85;101831.38;5010569;28;20059;-64
2024/01/21 01:11:10;;;;;;;30.50;15.85;;;;;;;1.04;72.50;101835.53;5042059;28;20060;-63
2024/01/21 01:13:38;;;;;;;31.02;16.67;;;;;;;1.08;72.37;101842.19;5047390;28;20056;-64
2024/01/21 01:16:06;;;;;;;23.50;15.00;;;;;;;1.21;72.30;101838.50;5046290;28;20432;-64
2024/01/21 01:18:35;;;;;;;26.13;15.45;;;;;;;1.29;71.89;101838.22;5042297;28;20064;-63
2024/01/21 01:21:02;;;;;;;26.85;16.20;;;;;;;1.25;71.97;101829.69;5027347;28;20064;-66
2024/01/21 01:23:30;;;;;;;29.63;16.17;;;;;;;1.25;71.76;101818.84;5033807;28;20058;-63
2024/01/21 01:25:57;;;;;;;29.52;16.10;;;;;;;1.29;71.77;101825.47;5047396;28;20067;-64
2024/01/21 01:28:25;;;;;;;24.55;15.13;;;;;;;1.20;72.37;101826.00;5045116;28;20049;-64
2024/01/21 01:30:52;;;;;;;26.42;15.48;;;;;;;1.24;71.64;101836.16;5055921;28;20064;-64
2024/01/21 01:33:19;;;;;;;26.20;15.55;;;;;;;1.23;72.23;101830.97;5044925;28;20057;-63
2024/01/21 01:35:47;;;;;;;27.25;16.35;;;;;;;1.29;71.92;101830.06;5046533;28;20048;-64
2024/01/21 01:38:14;;;;;;;28.65;15.27;;;;;;;1.24;71.92;101835.34;5046871;28;20056;-63
2024/01/21 01:40:41;;;;;;;28.13;15.30;;;;;;;1.26;72.03;101828.63;5046532;28;20083;-63
2024/01/21 01:43:09;;;;;;;28.85;15.77;;;;;;;1.21;72.44;101823.06;5043993;28;20063;-63
2024/01/21 01:45:36;;;;;;;26.23;15.63;;;;;;;1.28;71.71;101831.13;5026994;28;20518;-64
2024/01/21 01:48:04;;;;;;;27.10;15.38;;;;;;;1.13;71.76;101839.63;5039695;28;20056;-64
2024/01/21 01:50:32;;;;;;;23.35;14.68;;;;;;;1.08;72.37;101836.78;5046195;28;20048;-64
2024/01/21 01:53:00;;;;;;;29.00;15.60;;;;;;;1.23;72.18;101833.69;5045066;28;20515;-64
2024/01/21 01:55:28;;;;;;;25.38;15.00;;;;;;;1.44;71.60;101833.25;5047790;28;20061;-63
2024/01/21 01:57:55;;;;;;;26.13;14.52;;;;;;;1.24;71.80;101838.88;5044529;28;20049;-63
2024/01/21 02:00:22;;;;;;;24.10;13.40;;;;;;;1.27;71.74;101854.72;5044683;28;20057;-63
2024/01/21 02:02:50;;;;;;;26.10;15.35;;;;;;;1.57;71.35;101843.97;5060506;28;20057;-63
2024/01/21 02:05:18;;;;;;;25.98;14.98;;;;;;;1.54;70.64;101857.97;5066092;28;20099;-64
2024/01/21 02:07:46;;;;;;;22.17;14.48;;;;;;;1.36;70.81;101866.94;5047138;28;20051;-64
2024/01/21 02:10:14;;;;;;;25.88;15.18;;;;;;;1.37;70.89;101865.88;5045926;28;20465;-64
2024/01/21 02:12:44;;;;;;;25.00;14.73;;;;;;;1.52;70.76;101855.47;5045480;28;20055;-63
2024/01/21 02:15:12;;;;;;;24.15;15.30;;;;;;;1.37;70.82;101854.19;5054567;28;20045;-63
2024/01/21 02:17:40;;;;;;;24.02;14.48;;;;;;;1.64;70.62;101867.25;5046339;28;20080;-64
2024/01/21 02:20:09;;;;;;;26.65;14.80;;;;;;;1.50;70.55;101846.72;5045385;28;20083;-64
2024/01/21 02:22:39;;;;;;;25.80;14.63;;;;;;;1.70;69.99;101858.19;5044508;28;20622;-63
2024/01/21 02:25:07;;;;;;;24.90;15.05;;;;;;;1.74;69.64;101853.97;5052557;28;20071;-65
2024/01/21 02:27:35;;;;;;;26.23;13.88;;;;;;;1.49;70.28;101853.22;5066072;28;20067;-64
2024/01/21 02:30:03;;;;;;;25.60;14.23;;;;;;;1.79;70.02;101858.72;5061512;28;20060;-64
2024/01/21 02:32:30;;;;;;;26.33;14.40;;;;;;;1.67;69.92;101855.94;5045174;28;20056;-63
2024/01/21 02:34:58;;;;;;;24.25;14.27;;;;;;;1.65;69.59;101854.50;5045523;28;20542;-65
2024/01/21 02:37:25;;;;;;;28.15;14.23;;;;;;;1.56;70.42;101859.41;5045958;28;20052;-64
2024/01/21 02:39:52;;;;;;;24.75;14.02;;;;;;;1.68;70.12;101860.31;5046188;28;20049;-64
2024/01/21 02:42:20;;;;;;;24.45;14.82;;;;;;;1.40;70.55;101862.72;5043863;28;20057;-63
2024/01/21 02:44:50;;;;;;;23.05;13.20;;;;;;;1.80;70.25;101865.78;5040657;28;20664;-63
2024/01/21 02:47:17;;;;;;;24.80;14.95;;;;;;;1.66;69.73;101864.28;5033614;28;20510;-64
2024/01/21 02:49:44;;;;;;;24.52;14.23;;;;;;;1.86;69.52;101856.75;5026874;28;20044;-64
2024/01/21 02:52:12;;;;;;;25.08;14.60;;;;;;;2.12;69.68;101859.97;5044564;28;20068;-64
2024/01/21 02:54:39;;;;;;;25.05;14.63;;;;;;;1.91;68.69;101862.31;5044656;28;20049;-64
2024/01/21 02:57:06;;;;;;;25.33;14.93;;;;;;;1.70;69.34;101855.50;5044906;28;20048;-63
2024/01/21 02:59:34;;;;;;;25.42;14.48;;;;;;;1.82;70.05;101850.94;5044935;28;20053;-64
2024/01/21 03:02:01;;;;;;;25.35;14.57;;;;;;;1.77;69.70;101839.09;5032237;28;20213;-63
2024/01/21 03:04:28;;;;;;;24.88;14.80;;;;;;;1.90;69.54;101825.38;5045166;28;20558;-64
2024/01/21 03:06:56;;;;;;;24.67;15.48;;;;;;;2.00;69.03;101818.31;5044067;28;20071;-64
2024/01/21 03:09:23;;;;;;;26.17;14.02;;;;;;;1.85;69.37;101817.03;5045424;28;20057;-63
2024/01/21 03:11:56;;;;;;;24.48;14.13;;;;;;;1.83;69.71;101814.56;5043733;28;20053;-62
2024/01/21 03:14:23;;;;;;;24.02;14.50;;;;;;;1.78;69.89;101806.28;5045364;28;20048;-63
2024/01/21 03:16:51;;;;;;;25.05;14.05;;;;;;;1.96;68.89;101808.97;5042838;28;20060;-64
2024/01/21 03:19:18;;;;;;;23.98;14.15;;;;;;;1.85;69.60;101807.03;5044889;28;20056;-63
2024/01/21 03:21:46;;;;;;;23.92;13.63;;;;;;;1.88;69.00;101809.25;5044400;28;20072;-64
2024/01/21 03:24:13;;;;;;;25.08;13.90;;;;;;;1.85;69.31;101817.88;5045348;28;20053;-64
2024/01/21 03:26:40;;;;;;;22.92;13.60;;;;;;;1.91;68.95;101808.84;5057481;28;20052;-63
2024/01/21 03:29:08;;;;;;;21.42;12.48;;;;;;;1.79;69.47;101816.09;5064998;28;20562;-63
2024/01/21 03:31:35;;;;;;;24.02;14.13;;;;;;;1.88;69.71;101831.00;5046057;28;20045;-64
2024/01/21 03:34:03;;;;;;;22.52;13.57;;;;;;;1.80;69.49;101839.47;5040965;28;20057;-64
2024/01/21 03:36:31;;;;;;;24.48;14.05;;;;;;;1.92;69.41;101853.09;5032537;28;20068;-64
2024/01/21 03:38:58;;;;;;;22.98;13.88;;;;;;;1.94;69.53;101846.41;5039984;28;20432;-60
2024/01/21 03:41:25;;;;;;;21.50;13.23;;;;;;;2.09;68.89;101859.59;5043528;28;20053;-61
2024/01/21 03:43:53;;;;;;;21.63;12.65;;;;;;;2.10;68.40;101858.50;5043299;28;20060;-60
2024/01/21 03:46:20;;;;;;;22.30;12.60;;;;;;;1.97;68.21;101861.44;5044480;28;20061;-60
2024/01/21 03:48:47;;;;;;;24.90;13.68;;;;;;;2.00;68.41;101859.06;5043872;28;20063;-58
2024/01/21 03:51:15;;;;;;;21.27;12.65;;;;;;;2.04;67.92;101854.81;5059448;28;20049;-57
2024/01/21 03:53:42;;;;;;;22.33;12.80;;;;;;;2.10;67.45;101851.19;5059718;28;20045;-58
2024/01/21 03:56:19;;;;;;;21.23;12.57;;;;;;;2.22;66.55;101851.22;5045086;28;20064;-60
2024/01/21 03:58:46;;;;;;;19.63;11.55;;;;;;;2.23;65.89;101859.16;5042088;28;20060;-61
2024/01/21 04:01:14;;;;;;;22.50;12.15;;;;;;;2.51;65.38;101853.09;5043446;28;20045;-61
2024/01/21 04:03:41;;;;;;;19.20;10.77;;;;;;;2.38;64.42;101852.47;5044024;28;20853;-59
2024/01/21 04:06:09;;;;;;;19.10;10.82;;;;;;;2.30;64.33;101845.50;5043202;28;20049;-59
2024/01/21 04:08:36;;;;;;;19.63;12.00;;;;;;;2.37;64.18;101848.09;5028014;28;20058;-57
2024/01/21 04:11:04;;;;;;;18.63;11.02;;;;;;;2.42;64.47;101846.34;5028600;28;20045;-60
2024/01/21 04:13:32;;;;;;;16.70;10.38;;;;;;;2.49;63.69;101844.34;5028329;28;20053;-61
2024/01/21 04:15:59;;;;;;;16.90;10.27;;;;;;;2.51;63.72;101827.81;5027370;28;20465;-58
2024/01/21 04:18:27;;;;;;;17.85;10.45;;;;;;;2.57;62.95;101826.84;5027898;28;20049;-58
2024/01/21 04:20:54;;;;;;;17.77;10.65;;;;;;;2.59;62.61;101817.41;5036501;28;20045;-58
2024/01/21 04:23:21;;;;;;;17.10;10.27;;;;;;;2.48;63.14;101812.78;5045957;28;20067;-58
2024/01/21 04:25:49;;;;;;;19.05;10.57;;;;;;;2.62;62.60;101806.06;5041827;28;20049;-57
2024/01/21 04:28:17;;;;;;;17.23;10.63;;;;;;;2.60;62.40;101802.75;5036587;28;20065;-59
2024/01/21 04:30:45;;;;;;;16.80;10.48;;;;;;;2.67;62.22;101808.09;5041635;28;20053;-58
2024/01/21 04:33:12;;;;;;;17.15;10.73;;;;;;;2.58;62.07;101804.06;5036089;28;20076;-60
2024/01/21 04:35:39;;;;;;;18.35;10.27;;;;;;;2.69;61.46;101800.50;5078317;28;20060;-61
2024/01/21 04:38:07;;;;;;;16.13;10.20;;;;;;;2.66;61.40;101793.66;5049795;28;20083;-60
2024/01/21 04:40:34;;;;;;;17.15;10.00;;;;;;;2.51;61.27;101778.88;5047808;28;20400;-59
2024/01/21 04:43:01;;;;;;;16.23;9.35;;;;;;;2.69;61.00;101749.66;5045983;28;20606;-60
2024/01/21 04:45:28;;;;;;;17.52;9.55;;;;;;;2.52;60.70;101764.19;5062830;28;20415;-58
2024/01/21 04:47:56;;;;;;;15.95;8.63;;;;;;;2.60;60.24;101755.69;5047231;28;20116;-61
2024/01/21 04:50:23;;;;;;;15.55;9.27;;;;;;;2.75;59.90;101778.66;5047179;28;20056;-60
2024/01/21 04:52:50;;;;;;;14.98;8.70;;;;;;;2.64;59.68;101787.63;5046439;28;20053;-59
2024/01/21 04:55:17;;;;;;;17.08;9.10;;;;;;;2.70;59.55;101781.25;5046076;28;20057;-58
2024/01/21 04:57:45;;;;;;;15.00;9.00;;;;;;;2.77;59.21;101776.50;5047484;28;20073;-60
2024/01/21 05:00:13;;;;;;;17.23;8.90;;;;;;;3.17;58.73;101771.97;5048035;28;20053;-60
2024/01/21 05:02:40;;;;;;;14.45;8.90;;;;;;;3.24;57.50;101752.81;5047703;28;20061;-60
2024/01/21 05:05:08;;;;;;;15.05;8.77;;;;;;;2.93;58.16;101764.91;5063098;28;20063;-59
2024/01/21 05:07:35;;;;;;;17.15;8.60;;;;;;;3.03;57.67;101765.13;5045945;28;20052;-59
2024/01/21 05:10:03;;;;;;;12.73;7.93;;;;;;;3.10;57.88;101762.31;5047420;28;20052;-58
2024/01/21 05:12:30;;;;;;;15.93;8.65;;;;;;;3.17;57.47;101749.41;5047430;28;20057;-61
2024/01/21 05:14:57;;;;;;;14.07;7.82;;;;;;;2.96;57.71;101742.69;5028866;28;20057;-60
2024/01/21 05:17:24;;;;;;;13.82;7.80;;;;;;;3.14;57.56;101742.53;5046523;28;20059;-61
2024/01/21 05:19:51;;;;;;;14.25;7.85;;;;;;;2.97;58.31;101738.88;5047196;28;20060;-59
2024/01/21 05:22:19;;;;;;;15.30;8.02;;;;;;;3.08;58.51;101731.78;5046972;28;20044;-60
2024/01/21 05:24:46;;;;;;;14.60;7.97;;;;;;;3.19;58.30;101730.94;5028499;28;20055;-60
2024/01/21 05:27:14;;;;;;;14.07;7.93;;;;;;;3.17;59.33;101728.41;5037946;28;20056;-60
2024/01/21 05:29:42;;;;;;;13.50;8.00;;;;;;;3.21;59.60;101745.09;5047633;28;20057;-60
2024/01/21 05:32:10;;;;;;;13.57;8.10;;;;;;;3.38;59.30;101737.88;5061338;28;20065;-58
2024/01/21 05:34:37;;;;;;;14.85;8.02;;;;;;;3.37;59.82;101738.91;5039018;28;20057;-58
2024/01/21 05:37:05;;;;;;;17.17;7.47;;;;;;;3.38;59.97;101724.25;5082398;28;20057;-59
2024/01/21 05:39:33;;;;;;;12.25;7.68;;;;;;;3.22;60.82;101705.94;5040360;28;20045;-61
2024/01/21 05:42:05;;;;;;;14.27;7.88;;;;;;;3.33;61.00;101702.34;5079220;28;20052;-60
2024/01/21 05:44:32;;;;;;;11.68;7.30;;;;;;;3.36;61.89;101715.50;5047246;28;20061;-59
2024/01/21 05:47:00;;;;;;;14.05;7.78;;;;;;;3.63;61.52;101727.47;5062623;28;20069;-61
2024/01/21 05:49:28;;;;;;;13.10;7.55;;;;;;;3.45;62.17;101730.38;5046191;28;20060;-59
2024/01/21 05:51:55;;;;;;;12.90;7.70;;;;;;;3.53;62.41;101751.78;5046483;28;20053;-60
2024/01/21 05:54:23;;;;;;;15.20;8.27;;;;;;;3.30;63.68;101749.94;5046604;28;20057;-64
2024/01/21 05:56:50;;;;;;;12.40;7.78;;;;;;;3.56;63.17;101734.13;5046410;28;20064;-64
2024/01/21 05:59:19;;;;;;;14.57;7.72;;;;;;;3.45;63.92;101752.16;5046708;28;20068;-63
2024/01/21 06:01:48;;;;;;;12.93;7.35;;;;;;;3.35;64.71;101762.84;5046827;28;20052;-61
2024/01/21 06:04:16;;;;;;;13.77;7.80;;;;;;;3.30;65.36;101735.50;5044803;28;20056;-58
2024/01/21 06:06:44;;;;;;;12.63;7.75;;;;;;;3.31;66.02;101729.81;5046154;28;20064;-61
2024/01/21 06:09:12;;;;;;;12.15;7.22;;;;;;;3.38;66.15;101724.25;5046794;28;20045;-63
2024/01/21 06:11:40;;;;;;;15.32;7.20;;;;;;;3.35;66.18;101735.59;5046154;28;20056;-64
2024/01/21 06:14:08;;;;;;;13.02;7.43;;;;;;;3.27;66.25;101745.00;5046108;28;20053;-64
2024/01/21 06:16:36;;;;;;;13.10;7.78;;;;;;;3.26;66.42;101737.06;5046104;28;20048;-63
2024/01/21 06:19:03;;;;;;;12.60;7.43;;;;;;;3.26;66.33;101754.22;5044462;28;20068;-63
2024/01/21 06:21:33;;;;;;;15.48;7.72;;;;;;;3.23;66.55;101738.38;5045068;28;20056;-64
2024/01/21 06:24:01;;;;;;;15.00;7.47;;;;;;;3.33;66.55;101763.06;5045948;28;20056;-63
2024/01/21 06:26:28;;;;;;;13.45;7.30;;;;;;;3.35;66.65;101754.66;5045542;28;20688;-63
2024/01/21 06:28:56;;;;;;;11.63;6.97;;;;;;;3.22;67.16;101749.50;5042510;28;20054;-64
2024/01/21 06:31:23;;;;;;;15.77;8.18;;;;;;;3.27;67.86;101749.59;5054720;28;20049;-64
2024/01/21 06:33:51;;;;;;;11.93;7.25;;;;;;;3.42;67.41;101750.75;5043778;28;20467;-60
2024/01/21 06:36:18;;;;;;;14.43;7.25;;;;;;;3.49;67.41;101747.06;5046061;28;20049;-64
2024/01/21 06:38:46;;;;;;;14.10;7.35;;;;;;;3.57;67.24;101743.94;5045921;28;20045;-63
2024/01/21 06:41:13;;;;;;;14.68;7.75;;;;;;;3.71;67.26;101735.25;5045358;28;20049;-62
2024/01/21 06:43:40;;;;;;;13.75;7.95;;;;;;;3.69;67.12;101731.13;5045714;28;20056;-64
2024/01/21 06:46:08;;;;;;;13.73;8.20;;;;;;;3.69;67.04;101758.34;5043321;28;20626;-64
2024/01/21 06:48:36;;;;;;;12.85;7.88;;;;;;;3.59;68.09;101764.44;5044974;28;20802;-63
2024/01/21 06:51:10;;;;;;;13.73;7.28;;;;;;;3.75;68.19;101780.00;5045622;28;20061;-64
2024/01/21 06:53:38;;;;;;;13.20;7.57;;;;;;;3.70;68.30;101788.06;5045341;28;20083;-63
2024/01/21 06:56:07;;;;;;;16.10;7.75;;;;;;;3.54;69.00;101780.66;5045594;28;20084;-63
2024/01/21 06:58:34;;;;;;;14.02;8.00;;;;;;;3.55;69.60;101793.22;5044191;28;20468;-64
2024/01/21 07:01:02;;;;;;;15.35;7.55;;;;;;;3.74;69.04;101778.34;5045093;28;20044;-63
2024/01/21 07:03:29;;;;;;;14.25;8.65;;;;;;;3.52;69.56;101781.97;5045161;28;20053;-65
2024/01/21 07:05:57;;;;;;;11.35;7.28;;;;;;;3.58;69.71;101784.56;5045669;28;20156;-64
2024/01/21 07:08:24;;;;;;;16.55;7.75;;;;;;;3.59;69.73;101780.78;5045368;28;20057;-65
2024/01/21 07:10:51;;;;;;;15.38;8.00;;;;;;;3.52;69.98;101782.81;5045328;28;20053;-63
2024/01/21 07:13:18;;;;;;;12.25;7.40;;;;;;;3.54;70.21;101798.91;5045141;28;20045;-65
2024/01/21 07:15:46;;;;;;;13.30;7.97;;;;;;;3.49;70.21;101815.97;5045539;28;20408;-64
2024/01/21 07:18:14;;;;;;;15.15;8.05;;;;;;;3.54;70.29;101818.78;5042944;28;20060;-64
2024/01/21 07:20:41;;;;;;;13.30;7.85;;;;;;;3.68;69.97;101801.09;5045095;28;20577;-65
2024/01/21 07:23:08;;;;;;;17.00;8.15;;;;;;;3.72;69.77;101796.00;5025024;28;20080;-64
2024/01/21 07:25:36;;;;;;;13.27;8.07;;;;;;;3.62;70.36;101802.09;5036968;28;20050;-63
2024/01/21 07:28:03;;;;;;;15.00;8.00;;;;;;;3.46;70.16;101800.13;5023593;28;20053;-64
2024/01/21 07:30:31;;;;;;;13.02;7.97;;;;;;;3.47;70.51;101801.75;5045371;28;20057;-64
2024/01/21 07:32:58;;;;;;;12.93;7.55;;;;;;;3.66;70.06;101807.88;5032271;28;20060;-67
2024/01/21 07:35:29;;;;;;;14.48;7.70;;;;;;;3.54;70.56;101826.97;5062169;28;20052;-64
2024/01/21 07:37:56;;;;;;;12.27;7.65;;;;;;;3.51;70.73;101810.28;5038927;28;20056;-64
2024/01/21 07:40:24;;;;;;;14.00;7.25;;;;;;;3.93;69.54;101793.44;5040488;28;20053;-64
2024/01/21 07:42:51;;;;;;;15.15;8.18;;;;;;;3.60;70.10;101817.84;5040584;28;20045;-64
2024/01/21 07:45:19;;;;;;;15.43;7.85;;;;;;;3.59;70.71;101835.28;5056459;28;20052;-64
2024/01/21 07:47:49;;;;;;;14.57;8.20;;;;;;;3.52;71.28;101839.19;5032991;28;20049;-64
2024/01/21 07:50:16;;;;;;;12.00;7.55;;;;;;;3.62;71.43;101840.22;5056202;28;20060;-64
2024/01/21 07:52:47;;;;;;;12.07;7.68;;;;;;;3.78;70.48;101852.28;5033344;28;20045;-63
2024/01/21 07:55:14;;;;;;;16.83;8.13;;;;;;;3.75;70.72;101867.19;5043978;28;20064;-64
2024/01/21 07:57:41;;;;;;;12.38;7.13;;;;;;;3.86;70.38;101871.78;5044153;28;20583;-65
2024/01/21 08:00:10;;;;;;;13.70;7.72;;;;;;;3.92;70.17;101867.28;5044786;28;20060;-64
2024/01/21 08:02:37;;;;;;;12.30;7.00;;;;;;;3.94;69.99;101870.59;5059636;28;20049;-64
2024/01/21 08:05:05;;;;;;;12.43;7.10;;;;;;;3.96;70.14;101877.44;5044887;28;20053;-64
2024/01/21 08:07:32;;;;;;;12.48;7.93;;;;;;;3.93;70.36;101863.47;5045165;28;20053;-64
2024/01/21 08:09:59;;;;;;;14.25;7.07;;;;;;;4.07;70.23;101859.41;5044948;28;20056;-63
2024/01/21 08:12:27;;;;;;;16.52;7.00;;;;;;;4.05;69.50;101869.72;5038019;28;20049;-64
2024/01/21 08:14:54;;;;;;;13.52;7.65;;;;;;;4.01;70.32;101865.84;5035607;28;20057;-64
2024/01/21 08:17:21;;;;;;;15.30;7.75;;;;;;;4.11;69.46;101872.31;5059262;28;20063;-64
2024/01/21 08:19:49;;;;;;;12.98;7.57;;;;;;;4.18;69.27;101873.00;5057235;28;20057;-63
2024/01/21 08:22:16;;;;;;;16.08;7.90;;;;;;;4.23;69.20;101854.00;5022404;28;20057;-64
2024/01/21 08:24:44;;;;;;;12.02;7.43;;;;;;;4.21;68.86;101860.75;5034285;28;20069;-64
2024/01/21 08:27:11;;;;;;;15.55;8.05;;;;;;;4.29;69.00;101866.66;5031479;28;20053;-64
2024/01/21 08:29:39;;;;;;;18.13;7.63;;;;;;;4.06;69.80;101874.91;5047174;28;20434;-64
2024/01/21 08:32:08;;;;;;;14.43;7.57;;;;;;;4.10;70.02;101880.72;5052944;28;20069;-64
2024/01/21 08:34:36;;;;;;;12.50;6.85;;;;;;;4.19;69.77;101901.91;5038062;28;20060;-63
2024/01/21 08:37:03;;;;;;;16.60;7.28;;;;;;;4.22;70.26;101915.06;5044465;28;20053;-63
2024/01/21 08:39:30;;;;;;;15.35;7.45;;;;;;;4.26;70.36;101923.56;5028483;28;20057;-65
2024/01/21 08:41:58;;;;;;;18.33;8.10;;;;;;;4.28;70.38;101922.28;5040349;28;20053;-64
2024/01/21 08:44:25;;;;;;;10.82;6.90;;;;;;;4.64;69.99;101937.41;5046123;28;20068;-62
2024/01/21 08:46:52;;;;;;;14.38;7.97;;;;;;;4.66;69.71;101945.34;5027859;28;20056;-63
2024/01/21 08:49:20;;;;;;;21.08;11.88;;;;;;;4.48;70.62;101949.13;5043256;28;20048;-65
2024/01/21 08:51:47;;;;;;;17.48;10.50;;;;;;;4.53;70.93;101954.69;5039946;28;20057;-64
2024/01/21 08:54:15;;;;;;;16.60;8.00;;;;;;;4.49;70.83;101956.22;5028829;28;20058;-64
2024/01/21 08:56:42;;;;;;;13.50;7.30;;;;;;;4.52;71.39;101940.22;5048597;28;20065;-62
2024/01/21 08:59:10;;;;;;;13.45;7.05;;;;;;;4.51;71.84;101930.38;5047366;28;20045;-64
2024/01/21 09:01:37;;;;;;;16.25;7.63;;;;;;;4.50;71.49;101939.63;5048723;28;20056;-64
2024/01/21 09:04:05;;;;;;;13.30;6.80;;;;;;;4.57;71.66;101937.56;5043899;28;20050;-64
2024/01/21 09:06:32;;;;;;;11.52;6.60;;;;;;;4.95;70.82;101944.28;5027853;28;20053;-64
2024/01/21 09:09:02;;;;;;;12.95;7.40;;;;;;;4.86;70.64;101932.09;5027937;28;20053;-63
2024/01/21 09:11:29;;;;;;;14.10;6.80;;;;;;;4.93;70.67;101938.22;5025907;28;20072;-64
2024/01/21 09:13:57;;;;;;;11.82;6.75;;;;;;;4.83;71.13;101947.03;5065836;28;20587;-64
2024/01/21 09:16:25;;;;;;;11.68;6.82;;;;;;;4.87;71.04;101941.91;5045840;28;20068;-64
2024/01/21 09:18:52;;;;;;;15.43;6.85;;;;;;;4.91;71.08;101937.63;5036649;28;20045;-64
2024/01/21 09:21:21;;;;;;;12.35;7.50;;;;;;;5.10;70.55;101939.91;5047917;28;20045;-65
2024/01/21 09:24:24;;;;;;;12.48;6.35;;;;;;;5.01;70.53;101935.06;5048609;28;20053;-63
2024/01/21 09:26:52;;;;;;;11.02;6.40;;;;;;;4.91;71.08;101935.75;5035971;28;20054;-64
2024/01/21 09:29:19;;;;;;;13.80;6.97;;;;;;;4.83;71.34;101951.69;5028095;28;20190;-64
2024/01/21 09:31:55;;;;;;;13.80;7.25;;;;;;;4.93;71.85;101952.72;5036183;28;20060;-64
2024/01/21 09:34:22;;;;;;;11.98;6.88;;;;;;;5.05;71.24;101942.53;5026286;28;20630;-65
2024/01/21 09:36:52;;;;;;;10.68;6.20;;;;;;;5.31;70.56;101938.31;5044580;28;20061;-64
2024/01/21 09:39:25;;;;;;;12.35;6.57;;;;;;;5.06;71.20;101916.03;5046304;28;20055;-64
2024/01/21 09:41:52;;;;;;;15.15;7.03;;;;;;;5.15;71.32;101911.84;5036495;28;20063;-64
2024/01/21 09:44:29;;;;;;;11.38;7.00;;;;;;;5.00;72.05;101920.63;5044736;28;20048;-64
2024/01/21 09:46:58;;;;;;;13.10;6.75;;;;;;;5.12;71.57;101926.00;5046300;28;20056;-64
2024/01/21 09:49:26;;;;;;;12.57;6.95;;;;;;;5.06;71.82;101925.06;5077647;28;20768;-64
2024/01/21 09:51:55;;;;;;;13.88;6.35;;;;;;;4.99;72.31;101940.78;5041565;28;20053;-64
2024/01/21 09:54:23;;;;;;;11.65;5.88;;;;;;;5.19;72.11;101935.69;5027980;28;20663;-64
2024/01/21 09:56:50;;;;;;;11.57;6.53;;;;;;;5.17;72.58;101947.91;5046359;28;20057;-63
2024/01/21 09:59:17;;;;;;;12.60;6.60;;;;;;;5.36;71.77;101938.41;5039197;28;20065;-64
2024/01/21 10:01:45;;;;;;;11.13;6.82;;;;;;;5.40;71.53;101942.28;5027087;28;20746;-65
2024/01/21 10:04:17;;;;;;;12.15;6.80;;;;;;;5.98;71.93;101922.66;5025873;28;20465;-63
2024/01/21 10:06:45;;;;;;;13.95;5.88;;;;;;;5.94;70.25;101935.19;5030539;28;20078;-63
2024/01/21 10:09:17;;;;;;;10.93;5.82;;;;;;;5.99;69.87;101957.13;5046876;28;20060;-62
2024/01/21 10:11:49;;;;;;;11.00;5.90;;;;;;;5.96;69.94;101969.41;5029033;28;20057;-63
2024/01/21 10:14:17;;;;;;;10.55;6.20;;;;;;;5.82;70.52;101953.59;5038575;28;20045;-64
2024/01/21 10:16:44;;;;;;;13.38;6.15;;;;;;;5.93;70.68;101950.75;5049318;28;20132;-66
2024/01/21 10:19:13;;;;;;;13.75;6.07;;;;;;;5.81;71.37;101955.47;5034467;28;20061;-65
2024/01/21 10:21:41;;;;;;;;;;;;;;;5.90;71.39;101959.47;5044211;28;20576;-64
2024/01/21 10:24:10;;;;;;;11.00;5.72;;;;;;;5.90;71.19;101966.84;5076733;28;19936;-64
2024/01/21 10:26:41;;;;;;;12.05;5.90;;;;;;;5.84;72.05;101951.47;5045883;28;20056;-64
2024/01/21 10:29:18;;;;;;;12.10;6.13;;;;;;;5.88;72.28;101934.28;5041959;28;20045;-65
2024/01/21 10:31:53;;;;;;;12.45;5.82;;;;;;;6.02;72.98;101937.47;5044490;28;20057;-66
2024/01/21 10:34:20;;;;;;;10.25;5.82;;;;;;;6.12;72.71;101938.44;5040674;28;20050;-65
2024/01/21 10:36:51;;;;;;;13.27;6.07;;;;;;;6.20;73.03;101924.31;5059463;28;20071;-63
2024/01/21 10:39:19;;;;;;;;;;;;;;;6.20;73.40;101915.28;5058838;28;20088;-64
2024/01/21 10:41:47;;;;;;;16.13;6.47;;;;;;;6.50;73.25;101896.47;5039297;28;19924;-66
2024/01/21 10:44:15;;;;;;;12.75;5.90;;;;;;;6.52;73.36;101900.59;5045173;28;20291;-64
2024/01/21 10:46:48;;;;;;;11.68;5.88;;;;;;;6.73;73.44;101888.78;5031201;28;20053;-63
2024/01/21 10:49:17;;;;;;;10.45;5.60;;;;;;;6.67;73.95;101881.59;5025914;28;20621;-64
2024/01/21 10:51:45;;;;;;;12.02;6.20;;;;;;;6.75;74.82;101886.59;5032023;28;20049;-64
2024/01/21 10:54:16;;;;;;;20.15;8.85;;;;;;;6.72;75.44;101876.19;5039344;28;20060;-64
2024/01/21 10:56:43;;;;;;;12.48;6.47;;;;;;;6.85;76.44;101870.25;5040298;28;20057;-64
2024/01/21 10:59:11;;;;;;;12.18;5.70;;;;;;;6.96;76.22;101873.91;5040944;28;20606;-63
2024/01/21 11:01:42;;;;;;;12.18;5.70;;;;;;;6.85;76.91;101873.00;5044039;28;20064;-64
2024/01/21 11:04:12;;;;;;;12.88;5.70;;;;;;;6.92;77.54;101871.97;5048489;28;20052;-64
2024/01/21 11:06:48;;;;;;;10.50;5.57;;;;;;;7.10;77.53;101866.91;5028670;28;20080;-66
2024/01/21 11:09:17;;;;;;;12.65;6.32;;;;;;;7.21;77.64;101865.06;5039354;28;20416;-65
2024/01/21 11:11:48;;;;;;;14.48;6.18;;;;;;;7.18;77.18;101865.59;5034301;28;20061;-67
2024/01/21 11:14:35;;;;;;;12.73;5.68;;;;;;;7.11;78.22;101875.97;5042214;28;20056;-65
2024/01/21 11:17:03;;;;;;;12.43;6.18;;;;;;;7.10;78.92;101885.25;5045037;28;20053;-64
2024/01/21 11:19:38;;;;;;;17.00;7.03;;;;;;;6.96;79.43;101889.53;5033581;28;20057;-63
2024/01/21 11:22:10;;;;;;;12.35;6.15;;;;;;;7.10;78.49;101883.34;5031187;28;20072;-66
2024/01/21 11:24:57;;;;;;;19.10;6.10;;;;;;;7.13;79.05;101882.00;5044242;28;20065;-65
2024/01/21 11:27:26;;;;;;;15.32;6.15;;;;;;;7.09;79.31;101869.91;5036434;28;20057;-64
2024/01/21 11:29:55;;;;;;;14.68;6.53;;;;;;;7.12;79.30;101880.34;5044408;28;20056;-63